createdAt,value
2022-08-20T00:00:36.174Z,30.23
2022-08-20T00:05:38.671Z,36.05
2022-08-20T00:10:43.898Z,36.05
2022-08-20T00:15:48.549Z,34.60
2022-08-20T00:20:51.985Z,40.60
2022-08-20T00:25:54.392Z,37.85
2022-08-20T00:30:55.283Z,40.28
2022-08-20T00:35:57.478Z,36.40
2022-08-20T00:41:00.241Z,35.47
2022-08-20T00:46:02.564Z,40.65
2022-08-20T00:51:06.718Z,35.03
2022-08-20T00:56:10.576Z,36.45
2022-08-20T01:01:11.618Z,38.67
2022-08-20T01:06:12.239Z,38.90
2022-08-20T01:11:16.565Z,41.83
2022-08-20T01:16:23.663Z,54.00
2022-08-20T01:21:28.158Z,43.80
2022-08-20T01:26:35.210Z,44.10
2022-08-20T01:31:38.816Z,45.70
2022-08-20T01:36:46.350Z,43.72
2022-08-20T01:42:04.309Z,50.95
2022-08-20T01:47:16.420Z,48.53
2022-08-20T01:52:25.873Z,51.55
2022-08-20T01:57:29.205Z,47.42
2022-08-20T02:02:29.824Z,52.05
2022-08-20T02:07:32.346Z,54.90
2022-08-20T02:12:35.182Z,58.50
2022-08-20T02:17:36.331Z,59.10
2022-08-20T02:22:40.539Z,61.35
2022-08-20T02:27:49.463Z,72.18
2022-08-20T02:32:50.258Z,76.22
2022-08-20T02:37:57.264Z,71.47
2022-08-20T02:43:00.284Z,82.88
2022-08-20T02:48:00.884Z,73.28
2022-08-20T02:53:01.482Z,70.57
2022-08-20T02:58:03.462Z,86.82
2022-08-20T03:03:04.239Z,94.10
2022-08-20T03:08:07.065Z,92.50
2022-08-20T03:13:12.305Z,95.65
2022-08-20T03:18:13.618Z,83.70
2022-08-20T03:23:17.198Z,83.68
2022-08-20T03:28:19.898Z,92.97
2022-08-20T03:33:21.299Z,83.97
2022-08-20T03:38:32.635Z,90.20
2022-08-20T03:43:35.561Z,86.13
2022-08-20T03:48:36.369Z,88.90
2022-08-20T03:53:37.058Z,77.80
2022-08-20T03:58:39.199Z,72.70
2022-08-20T04:03:39.813Z,74.03
2022-08-20T04:08:41.541Z,65.45
2022-08-20T04:13:43.534Z,60.78
2022-08-20T04:19:01.647Z,59.83
2022-08-20T04:24:04.452Z,51.30
2022-08-20T04:29:06.390Z,54.40
2022-08-20T04:34:08.017Z,44.78
2022-08-20T04:39:08.652Z,40.35
2022-08-20T04:44:11.759Z,33.03
2022-08-20T04:49:12.788Z,20.48
2022-08-20T04:54:14.414Z,22.17
2022-08-20T04:59:16.494Z,23.83
2022-08-20T05:04:17.097Z,18.08
2022-08-20T05:09:17.696Z,20.90
2022-08-20T05:14:19.872Z,18.80
2022-08-20T05:19:25.747Z,17.92
2022-08-20T05:24:27.276Z,19.35
2022-08-20T05:29:29.632Z,20.80
2022-08-20T05:34:30.250Z,29.13
2022-08-20T05:39:35.396Z,30.95
2022-08-20T05:44:39.338Z,43.10
2022-08-20T05:49:40.318Z,42.13
2022-08-20T05:54:40.928Z,42.65
2022-08-20T05:59:42.862Z,46.25
2022-08-20T06:04:43.473Z,43.05
2022-08-20T06:09:44.579Z,44.40
2022-08-20T06:14:47.406Z,45.78
2022-08-20T06:19:48.792Z,42.30
2022-08-20T06:24:50.416Z,49.08
2022-08-20T06:29:53.346Z,49.33
2022-08-20T06:34:54.225Z,50.75
2022-08-20T06:39:55.094Z,51.42
2022-08-20T06:44:59.568Z,48.22
2022-08-20T06:50:00.263Z,46.42
2022-08-20T06:55:01.244Z,54.67
2022-08-20T07:00:03.305Z,53.88
2022-08-20T07:05:05.210Z,59.78
2022-08-20T07:10:07.465Z,64.78
2022-08-20T07:15:12.163Z,67.82
2022-08-20T07:20:16.055Z,64.07
2022-08-20T07:25:19.681Z,71.18
2022-08-20T07:30:56.229Z,70.93
2022-08-20T07:35:58.878Z,73.80
2022-08-20T07:41:01.913Z,68.90
2022-08-20T07:46:07.502Z,68.30
2022-08-20T07:51:11.415Z,64.55
2022-08-20T07:56:14.563Z,73.45
2022-08-20T08:01:17.312Z,76.13
2022-08-20T08:06:29.554Z,89.75
2022-08-20T08:11:33.455Z,92.20
2022-08-20T08:16:35.585Z,86.00
2022-08-20T08:21:36.292Z,84.00
2022-08-20T08:26:36.986Z,95.88
2022-08-20T08:31:40.945Z,77.40
2022-08-20T08:36:44.291Z,75.47
2022-08-20T08:41:50.046Z,70.43
2022-08-20T08:46:56.527Z,71.00
2022-08-20T08:52:04.472Z,69.72
2022-08-20T08:57:08.197Z,72.90
2022-08-20T09:02:20.049Z,73.30
2022-08-20T09:07:20.953Z,69.07
2022-08-20T09:12:23.659Z,61.10
2022-08-20T09:17:26.326Z,66.85
2022-08-20T09:22:26.953Z,67.38
2022-08-20T09:27:27.531Z,75.90
2022-08-20T09:32:29.442Z,70.18
2022-08-20T09:37:36.685Z,71.75
2022-08-20T09:42:41.634Z,63.55
2022-08-20T09:47:55.251Z,71.13
2022-08-20T09:53:00.525Z,73.45
2022-08-20T09:58:02.486Z,72.07
2022-08-20T10:03:04.474Z,72.70
2022-08-20T10:08:06.595Z,77.00
2022-08-20T10:13:07.249Z,79.10
2022-08-20T10:18:12.282Z,72.13
2022-08-20T10:23:13.246Z,80.55
2022-08-20T10:28:13.857Z,77.97
2022-08-20T10:33:15.835Z,68.07
2022-08-20T10:38:16.440Z,74.28
2022-08-20T10:43:17.045Z,71.00
2022-08-20T10:48:21.555Z,68.28
2022-08-20T10:53:22.381Z,65.20
2022-08-20T10:58:23.124Z,67.28
2022-08-20T11:03:25.994Z,74.15
2022-08-20T11:08:34.261Z,67.07
2022-08-20T11:13:38.186Z,77.05
2022-08-20T11:18:43.758Z,69.40
2022-08-20T11:23:47.662Z,76.05
2022-08-20T11:28:48.566Z,71.63
2022-08-20T11:33:50.807Z,81.93
2022-08-20T11:38:51.819Z,77.10
2022-08-20T11:44:10.740Z,80.75
2022-08-20T11:49:15.496Z,80.70
2022-08-20T11:54:16.549Z,81.43
2022-08-20T11:59:18.337Z,90.55
2022-08-20T12:04:21.313Z,82.13
2022-08-20T12:09:26.368Z,75.68
2022-08-20T12:14:27.830Z,78.05
2022-08-20T12:19:30.189Z,81.90
2022-08-20T12:24:31.166Z,82.32
2022-08-20T12:29:34.509Z,76.93
2022-08-20T12:34:40.788Z,77.82
2022-08-20T12:39:44.306Z,79.18
2022-08-20T12:44:45.503Z,68.60
2022-08-20T12:49:51.430Z,68.65
2022-08-20T12:54:52.439Z,65.43
2022-08-20T12:59:53.452Z,60.13
2022-08-20T13:04:55.728Z,59.60
2022-08-20T13:09:59.594Z,62.53
2022-08-20T13:15:00.210Z,63.40
2022-08-20T13:20:02.274Z,63.63
2022-08-20T13:25:02.893Z,60.35
2022-08-20T13:30:03.517Z,62.53
2022-08-20T13:35:06.681Z,58.67
2022-08-20T13:40:09.172Z,61.58
2022-08-20T13:45:10.921Z,50.88
2022-08-20T13:50:16.590Z,45.92
2022-08-20T13:55:22.132Z,38.95
2022-08-20T14:00:31.095Z,47.28
2022-08-20T14:05:34.435Z,45.67
2022-08-20T14:10:35.486Z,60.42
2022-08-20T14:15:37.482Z,60.20
2022-08-20T14:20:39.729Z,56.08
2022-08-20T14:25:42.063Z,41.13
2022-08-20T14:30:42.877Z,20.33
2022-08-20T14:35:44.807Z,17.98
2022-08-20T14:40:45.531Z,19.20
2022-08-20T14:45:46.309Z,21.88
2022-08-20T14:50:48.452Z,22.52
2022-08-20T14:55:49.240Z,27.77
2022-08-20T15:00:50.396Z,28.80
2022-08-20T15:05:52.397Z,27.98
2022-08-20T15:10:55.070Z,31.85
2022-08-20T15:15:55.946Z,25.33
2022-08-20T15:20:58.220Z,27.90
2022-08-20T15:25:58.830Z,33.38
2022-08-20T15:30:59.461Z,29.02
2022-08-20T15:36:01.564Z,33.38
2022-08-20T15:41:02.919Z,30.58
2022-08-20T15:46:06.178Z,32.63
2022-08-20T15:51:24.141Z,34.05
2022-08-20T15:56:42.982Z,32.38
2022-08-20T16:01:54.269Z,30.98
2022-08-20T16:07:03.093Z,39.08
2022-08-20T16:12:10.212Z,34.88
2022-08-20T16:17:15.852Z,42.92
2022-08-20T16:22:20.180Z,42.30
2022-08-20T16:27:29.372Z,36.92
2022-08-20T16:32:37.673Z,40.78
2022-08-20T16:37:48.042Z,42.42
2022-08-20T16:42:52.200Z,43.58
2022-08-20T16:47:55.491Z,48.28
2022-08-20T16:52:57.624Z,41.88
2022-08-20T16:57:58.699Z,48.65
2022-08-20T17:03:01.131Z,49.75
2022-08-20T17:08:07.118Z,41.63
2022-08-20T17:13:23.856Z,40.47
2022-08-20T17:18:32.212Z,44.08
2022-08-20T17:23:54.643Z,41.70
2022-08-20T17:29:02.549Z,38.95
2022-08-20T17:34:03.517Z,41.40
2022-08-20T17:39:15.501Z,40.45
2022-08-20T17:44:23.669Z,45.38
2022-08-20T17:49:34.865Z,42.83
2022-08-20T17:54:40.216Z,43.17
2022-08-20T17:59:59.811Z,43.65
2022-08-20T18:05:10.245Z,40.92
2022-08-20T18:10:19.394Z,44.40
2022-08-20T18:15:24.798Z,44.90
2022-08-20T18:20:40.577Z,49.85
2022-08-20T18:25:46.725Z,41.30
2022-08-20T18:30:50.303Z,45.35
2022-08-20T18:35:51.201Z,52.30
2022-08-20T18:40:55.240Z,44.15
2022-08-20T18:45:56.105Z,49.92
2022-08-20T18:50:58.611Z,51.15
2022-08-20T18:56:06.942Z,48.65
2022-08-20T19:01:13.608Z,48.67
2022-08-20T19:06:26.028Z,53.47
2022-08-20T19:11:46.706Z,46.10
2022-08-20T19:16:51.721Z,48.00
2022-08-20T19:21:53.384Z,50.17
2022-08-20T19:26:58.823Z,50.63
2022-08-20T19:32:01.046Z,42.53
2022-08-20T19:37:28.177Z,44.67
2022-08-20T19:42:30.212Z,44.35
2022-08-20T19:47:34.630Z,43.25
2022-08-20T19:52:51.617Z,48.17
2022-08-20T19:57:57.021Z,48.30
2022-08-20T20:02:57.935Z,43.45
2022-08-20T20:07:59.784Z,45.72
2022-08-20T20:13:08.780Z,47.95
2022-08-20T20:18:10.558Z,41.00
2022-08-20T20:23:15.890Z,43.65
2022-08-20T20:28:22.637Z,43.55
2022-08-20T20:33:30.743Z,44.80
2022-08-20T20:38:31.454Z,43.03
2022-08-20T20:43:36.731Z,42.47
2022-08-20T20:48:45.982Z,44.40
2022-08-20T20:53:54.376Z,51.75
2022-08-20T20:58:57.617Z,48.65
2022-08-20T21:03:59.961Z,49.67
2022-08-20T21:09:01.388Z,49.35
2022-08-20T21:14:03.291Z,50.55
2022-08-20T21:19:06.682Z,49.80
2022-08-20T21:24:08.688Z,50.17
2022-08-20T21:29:14.198Z,49.10
2022-08-20T21:34:16.560Z,50.55
2022-08-20T21:39:17.716Z,54.67
2022-08-20T21:44:22.807Z,60.78
2022-08-20T21:49:27.194Z,66.95
2022-08-20T21:54:28.252Z,67.63
2022-08-20T21:59:30.519Z,69.30
2022-08-20T22:04:34.891Z,74.25
2022-08-20T22:09:38.292Z,78.57
2022-08-20T22:14:40.239Z,70.97
2022-08-20T22:19:40.958Z,78.65
2022-08-20T22:24:41.641Z,74.35
2022-08-20T22:29:43.577Z,71.30
2022-08-20T22:34:44.266Z,71.13
2022-08-20T22:39:44.912Z,71.25
2022-08-20T22:44:46.835Z,70.57
2022-08-20T22:49:47.508Z,60.28
2022-08-20T22:54:48.190Z,66.85
2022-08-20T22:59:53.156Z,64.30
2022-08-20T23:04:54.189Z,60.42
2022-08-20T23:09:54.827Z,64.07
2022-08-20T23:14:56.747Z,64.90
2022-08-20T23:19:57.354Z,58.40
2022-08-20T23:25:00.528Z,64.80
2022-08-20T23:30:02.731Z,61.85
2022-08-20T23:35:03.336Z,56.45
2022-08-20T23:40:05.493Z,55.05
2022-08-20T23:45:08.903Z,57.20
2022-08-20T23:50:11.842Z,57.80
2022-08-20T23:55:13.393Z,58.20
